Portada
METAR-TAF:

METAR-TAF

Aeropuertos :

Aeropuerto de Toulouse-Blagnac

Toulouse, Francia

latitud: 43-38N, longitud: 001-22E, altitud: 152 m

Observación

El informe se hizo hace 37 minutos, a las 07:30 UTC
Viento 8 kt del noroeste
Temperatura 6°C
Humedad 52%
Presión 1020 hPa
Visibilidad 10 km o más
sin nubes por debajo de 1500 m y sin presencia de cumulonimbus.

METAR: LFBO 160730Z AUTO 31008KT CAVOK 06/M03 Q1020 TEMPO SCT075TCU

Hora: 10:07 (08:07 UTC)

Pronóstico

El informe se hizo hace 3 horas y 7 minutos, a las 05:00 UTC
Pronóstico válido del 16 a las 06 UTC al 17 a las 12 UTC
Viento 10 kt del noroeste
Visibilidad 10 km o más
sin nubes por debajo de 1500 m y sin presencia de cumulonimbus.
Probabilidad 40% :
Temporalmente
del 16 a las 06 UTC al 16 a las 20 UTC
Nubes dispersas a una altura de 7500 ft, Cumulus congestus.

TAF: LFBO 160500Z 1606/1712 32010KT CAVOK PROB40 TEMPO 1606/1620 SCT075TCU

Observaciones y pronósticos meteorológicos de más de 4000 aeropuertos (mensajes METAR y TAF).

Los puntos amarillos y rojos representan las estaciones disponibles.

Ponga el ratón en el punto deseado para ver el nombre de la estación.

Haga clic para ver las observaciones y los pronósticos meteorológicos.

Para cambiar el mapa : haga clic en los botones verdes con una cruz de color negro para hacer un zoom, en el botón verde con un guión para alejar o en las flechas verdes para mapas adyacentes.


METAR-TAF: